createdAt,value
2022-08-14T00:00:14.341Z,47.32
2022-08-14T00:02:42.134Z,47.14
2022-08-14T00:05:14.277Z,47.44
2022-08-14T00:07:42.064Z,47.14
2022-08-14T00:10:52.199Z,47.52
2022-08-14T00:12:58.713Z,47.45
2022-08-14T00:15:43.374Z,47.27
2022-08-14T00:18:30.217Z,47.26
2022-08-14T00:21:01.374Z,47.26
2022-08-14T00:23:27.809Z,47.37
2022-08-14T00:26:05.569Z,47.52
2022-08-14T00:28:35.870Z,47.63
2022-08-14T00:31:04.861Z,47.70
2022-08-14T00:33:52.101Z,47.96
2022-08-14T00:36:36.153Z,48.11
2022-08-14T00:39:06.597Z,47.67
2022-08-14T00:41:35.937Z,47.94
2022-08-14T00:44:05.540Z,47.99
2022-08-14T00:46:33.533Z,47.85
2022-08-14T00:49:00.739Z,48.11
2022-08-14T00:51:37.777Z,48.22
2022-08-14T00:54:11.131Z,48.22
2022-08-14T00:56:49.022Z,48.08
2022-08-14T00:59:16.168Z,48.11
2022-08-14T01:01:44.117Z,48.50
2022-08-14T01:04:51.510Z,48.43
2022-08-14T01:06:58.960Z,48.60
2022-08-14T01:09:26.641Z,48.75
2022-08-14T01:12:03.551Z,48.69
2022-08-14T01:14:30.467Z,48.18
2022-08-14T01:16:57.616Z,48.45
2022-08-14T01:19:44.810Z,48.94
2022-08-14T01:22:13.414Z,48.40
2022-08-14T01:24:45.521Z,48.97
2022-08-14T01:27:18.434Z,48.83
2022-08-14T01:30:03.380Z,48.88
2022-08-14T01:32:37.577Z,48.54
2022-08-14T01:35:20.850Z,49.15
2022-08-14T01:37:58.620Z,48.92
2022-08-14T01:40:36.253Z,49.09
2022-08-14T01:43:14.683Z,48.95
2022-08-14T01:45:42.450Z,49.40
2022-08-14T01:48:16.014Z,49.59
2022-08-14T01:50:47.377Z,49.57
2022-08-14T01:53:13.850Z,49.78
2022-08-14T01:55:41.258Z,49.59
2022-08-14T01:58:19.477Z,49.64
2022-08-14T02:00:54.416Z,49.59
2022-08-14T02:03:23.695Z,49.78
2022-08-14T02:05:50.230Z,49.86
2022-08-14T02:08:22.427Z,49.94
2022-08-14T02:11:22.254Z,49.86
2022-08-14T02:14:14.139Z,50.30
2022-08-14T02:16:48.095Z,50.07
2022-08-14T02:19:18.694Z,50.10
2022-08-14T02:21:50.277Z,50.21
2022-08-14T02:24:39.014Z,50.20
2022-08-14T02:28:24.386Z,50.59
2022-08-14T02:29:59.718Z,50.78
2022-08-14T02:32:30.369Z,50.79
2022-08-14T02:35:16.597Z,50.68
2022-08-14T02:37:47.852Z,50.78
2022-08-14T02:40:16.456Z,50.50
2022-08-14T02:42:55.156Z,51.23
2022-08-14T02:45:33.301Z,51.12
2022-08-14T02:48:10.540Z,51.36
2022-08-14T02:50:53.554Z,51.14
2022-08-14T02:53:20.186Z,51.43
2022-08-14T02:55:46.805Z,51.53
2022-08-14T02:58:21.481Z,51.35
2022-08-14T03:00:58.287Z,51.35
2022-08-14T03:03:25.702Z,51.55
2022-08-14T03:05:54.407Z,51.58
2022-08-14T03:08:22.136Z,51.64
2022-08-14T03:10:50.120Z,51.52
2022-08-14T03:13:21.458Z,51.45
2022-08-14T03:15:54.915Z,51.91
2022-08-14T03:18:31.629Z,51.84
2022-08-14T03:21:05.852Z,51.90
2022-08-14T03:23:37.905Z,51.99
2022-08-14T03:26:08.356Z,52.02
2022-08-14T03:28:34.890Z,52.17
2022-08-14T03:31:04.212Z,52.17
2022-08-14T03:33:37.913Z,52.24
2022-08-14T03:37:51.839Z,52.41
2022-08-14T03:39:16.104Z,52.46
2022-08-14T03:41:47.890Z,52.58
2022-08-14T03:45:26.285Z,52.09
2022-08-14T03:47:03.043Z,52.40
2022-08-14T03:49:30.070Z,52.35
2022-08-14T03:52:00.771Z,52.42
2022-08-14T03:54:28.412Z,52.26
2022-08-14T03:56:55.464Z,52.68
2022-08-14T03:59:22.140Z,52.74
2022-08-14T04:01:53.882Z,52.71
2022-08-14T04:04:28.119Z,52.59
2022-08-14T04:06:54.912Z,52.92
2022-08-14T04:09:26.629Z,52.85
2022-08-14T04:11:53.662Z,53.25
2022-08-14T04:14:20.348Z,53.13
2022-08-14T04:16:47.946Z,53.42
2022-08-14T04:19:19.867Z,53.31
2022-08-14T04:22:03.448Z,53.44
2022-08-14T04:24:38.263Z,53.58
2022-08-14T04:27:12.965Z,53.61
2022-08-14T04:29:44.903Z,53.90
2022-08-14T04:33:02.480Z,53.89
2022-08-14T04:34:59.716Z,53.88
2022-08-14T04:37:46.021Z,54.01
2022-08-14T04:40:32.241Z,54.14
2022-08-14T04:43:18.318Z,54.20
2022-08-14T04:45:51.298Z,54.00
2022-08-14T04:48:36.654Z,54.03
2022-08-14T04:51:15.741Z,54.26
2022-08-14T04:53:45.349Z,54.16
2022-08-14T04:56:31.213Z,54.44
2022-08-14T04:59:09.983Z,54.48
2022-08-14T05:01:41.604Z,54.50
2022-08-14T05:04:14.634Z,54.67
2022-08-14T05:06:43.143Z,54.84
2022-08-14T05:09:14.014Z,54.99
2022-08-14T05:11:41.792Z,55.10
2022-08-14T05:14:33.127Z,54.94
2022-08-14T05:16:59.251Z,55.08
2022-08-14T05:19:29.182Z,55.11
2022-08-14T05:22:15.985Z,55.39
2022-08-14T05:24:45.741Z,55.07
2022-08-14T05:27:17.377Z,55.24
2022-08-14T05:29:44.877Z,55.11
2022-08-14T05:32:12.543Z,54.69
2022-08-14T05:34:39.530Z,54.42
2022-08-14T05:37:07.407Z,54.56
2022-08-14T05:39:34.037Z,54.75
2022-08-14T05:42:00.900Z,54.33
2022-08-14T05:44:36.693Z,54.55
2022-08-14T05:47:03.960Z,54.83
2022-08-14T05:49:33.217Z,54.84
2022-08-14T05:52:02.681Z,54.99
2022-08-14T05:54:35.640Z,55.00
2022-08-14T05:57:06.007Z,55.03
2022-08-14T05:59:39.201Z,55.17
2022-08-14T06:02:09.922Z,55.16
2022-08-14T06:04:37.516Z,55.47
2022-08-14T06:07:05.034Z,55.50
2022-08-14T06:09:36.088Z,54.95
2022-08-14T06:12:10.485Z,54.96
2022-08-14T06:14:39.201Z,55.14
2022-08-14T06:17:06.319Z,55.39
2022-08-14T06:19:32.727Z,55.16
2022-08-14T06:21:59.774Z,55.33
2022-08-14T06:24:27.135Z,55.70
2022-08-14T06:26:56.835Z,55.28
2022-08-14T06:29:32.167Z,55.25
2022-08-14T06:32:37.619Z,55.26
2022-08-14T06:35:04.069Z,55.45
2022-08-14T06:37:48.921Z,55.27
2022-08-14T06:40:28.320Z,55.45
2022-08-14T06:43:15.311Z,55.32
2022-08-14T06:45:45.977Z,55.49
2022-08-14T06:48:23.770Z,55.01
2022-08-14T06:50:52.216Z,54.65
2022-08-14T06:53:19.784Z,54.89
2022-08-14T06:55:58.125Z,54.79
2022-08-14T06:58:29.150Z,54.78
2022-08-14T07:01:17.602Z,54.94
2022-08-14T07:04:05.488Z,54.90
2022-08-14T07:06:45.741Z,55.16
2022-08-14T07:09:18.130Z,55.02
2022-08-14T07:11:49.535Z,54.90
2022-08-14T07:14:16.114Z,54.73
2022-08-14T07:16:42.498Z,54.63
2022-08-14T07:19:09.912Z,54.61
2022-08-14T07:21:37.177Z,55.49
2022-08-14T07:24:04.815Z,55.05
2022-08-14T07:26:31.299Z,55.01
2022-08-14T07:28:57.770Z,54.89
2022-08-14T07:31:24.376Z,55.01
2022-08-14T07:33:51.122Z,54.65
2022-08-14T07:36:27.664Z,55.04
2022-08-14T07:39:03.368Z,55.15
2022-08-14T07:41:38.584Z,55.01
2022-08-14T07:44:28.729Z,54.53
2022-08-14T07:46:51.920Z,54.58
2022-08-14T07:49:20.139Z,54.63
2022-08-14T07:51:49.673Z,54.24
2022-08-14T07:54:23.588Z,54.47
2022-08-14T07:57:00.591Z,54.74
2022-08-14T07:59:42.418Z,54.42
2022-08-14T08:02:18.464Z,54.32
2022-08-14T08:04:54.920Z,53.97
2022-08-14T08:07:30.034Z,54.36
2022-08-14T08:09:58.392Z,54.70
2022-08-14T08:12:30.085Z,54.29
2022-08-14T08:15:02.571Z,53.99
2022-08-14T08:17:34.461Z,54.45
2022-08-14T08:20:06.569Z,53.40
2022-08-14T08:22:35.938Z,52.55
2022-08-14T08:25:08.516Z,53.32
2022-08-14T08:27:44.825Z,52.63
2022-08-14T08:30:12.450Z,52.79
2022-08-14T08:32:43.252Z,53.02
2022-08-14T08:35:17.219Z,52.70
2022-08-14T08:37:44.248Z,52.33
2022-08-14T08:40:11.380Z,51.92
2022-08-14T08:42:47.717Z,52.19
2022-08-14T08:45:21.259Z,52.45
2022-08-14T08:47:51.092Z,51.94
2022-08-14T08:50:31.431Z,51.68
2022-08-14T08:53:00.427Z,52.06
2022-08-14T08:55:35.535Z,52.29
2022-08-14T08:58:16.683Z,51.22
2022-08-14T09:00:54.668Z,51.57
2022-08-14T09:03:24.484Z,50.51
2022-08-14T09:06:03.587Z,50.58
2022-08-14T09:08:35.458Z,50.88
2022-08-14T09:11:19.697Z,49.87
2022-08-14T09:13:50.333Z,47.95
2022-08-14T09:16:21.076Z,47.86
2022-08-14T09:18:48.856Z,48.92
2022-08-14T09:21:16.167Z,48.82
2022-08-14T09:24:26.633Z,48.40
2022-08-14T09:26:29.954Z,47.85
2022-08-14T09:28:59.159Z,48.24
2022-08-14T09:31:27.984Z,48.33
2022-08-14T09:34:19.831Z,47.59
2022-08-14T09:37:37.408Z,47.37
2022-08-14T09:40:20.636Z,47.37
2022-08-14T09:43:07.089Z,47.04
2022-08-14T09:45:39.952Z,46.29
2022-08-14T09:48:29.937Z,45.56
2022-08-14T09:50:58.630Z,44.84
2022-08-14T09:54:18.429Z,43.59
2022-08-14T09:56:32.837Z,43.94
2022-08-14T09:59:15.245Z,44.33
2022-08-14T10:01:52.446Z,43.07
2022-08-14T10:04:33.530Z,43.06
2022-08-14T10:07:03.465Z,43.18
2022-08-14T10:09:33.403Z,42.23
2022-08-14T10:12:04.407Z,42.64
2022-08-14T10:14:36.665Z,42.67
2022-08-14T10:17:06.484Z,42.36
2022-08-14T10:19:35.715Z,41.69
2022-08-14T10:23:15.168Z,42.02
2022-08-14T10:24:50.989Z,40.12
2022-08-14T10:27:23.537Z,39.81
2022-08-14T10:29:55.228Z,40.28
2022-08-14T10:32:28.291Z,40.73
2022-08-14T10:35:13.672Z,40.70
2022-08-14T10:37:48.089Z,41.00
2022-08-14T10:40:37.530Z,41.12
2022-08-14T10:43:25.400Z,41.69
2022-08-14T10:46:21.567Z,41.63
2022-08-14T10:49:04.413Z,41.85
2022-08-14T10:51:36.299Z,41.95
2022-08-14T10:54:36.236Z,42.80
2022-08-14T10:56:55.684Z,43.07
2022-08-14T10:59:34.878Z,43.59
2022-08-14T11:02:02.113Z,42.98
2022-08-14T11:04:30.862Z,43.77
2022-08-14T11:06:58.349Z,43.27
2022-08-14T11:09:26.390Z,42.87
2022-08-14T11:12:40.116Z,43.19
2022-08-14T11:14:51.511Z,42.08
2022-08-14T11:17:32.115Z,42.66
2022-08-14T11:20:01.072Z,42.80
2022-08-14T11:22:55.915Z,42.07
2022-08-14T11:25:21.266Z,42.19
2022-08-14T11:27:49.136Z,42.78
2022-08-14T11:30:51.621Z,42.46
2022-08-14T11:33:09.120Z,42.56
2022-08-14T11:35:47.708Z,43.43
2022-08-14T11:38:17.857Z,43.36
2022-08-14T11:40:47.509Z,43.24
2022-08-14T11:43:15.288Z,42.92
2022-08-14T11:45:47.795Z,42.92
2022-08-14T11:49:02.891Z,43.16
2022-08-14T11:51:12.937Z,43.43
2022-08-14T11:53:42.112Z,43.91
2022-08-14T11:56:10.990Z,43.97
2022-08-14T11:58:38.554Z,44.39
2022-08-14T12:01:09.461Z,44.30
2022-08-14T12:03:51.192Z,43.25
2022-08-14T12:06:28.926Z,43.67
2022-08-14T12:09:08.267Z,43.91
2022-08-14T12:11:44.044Z,43.65
2022-08-14T12:14:34.828Z,44.20
2022-08-14T12:17:12.471Z,42.88
2022-08-14T12:19:46.129Z,41.75
2022-08-14T12:22:29.488Z,41.16
2022-08-14T12:24:57.369Z,40.38
2022-08-14T12:27:37.828Z,38.99
2022-08-14T12:30:10.047Z,31.94
2022-08-14T12:32:40.640Z,29.22
2022-08-14T12:35:07.654Z,24.89
2022-08-14T12:37:38.695Z,22.74
2022-08-14T12:40:14.025Z,21.11
2022-08-14T12:42:47.584Z,20.09
2022-08-14T12:45:31.521Z,21.05
2022-08-14T12:48:20.756Z,21.68
2022-08-14T12:50:53.153Z,20.77
2022-08-14T12:53:22.010Z,19.90
2022-08-14T12:56:17.839Z,19.46
2022-08-14T12:58:52.749Z,17.98
2022-08-14T13:01:27.764Z,17.04
2022-08-14T13:04:15.343Z,16.99
2022-08-14T13:06:44.706Z,17.06
2022-08-14T13:09:17.517Z,16.26
2022-08-14T13:11:49.356Z,16.96
2022-08-14T13:14:29.956Z,17.13
2022-08-14T13:16:58.729Z,18.13
2022-08-14T13:19:26.800Z,20.26
2022-08-14T13:22:04.793Z,20.37
2022-08-14T13:24:39.615Z,22.97
2022-08-14T13:27:09.987Z,23.59
2022-08-14T13:29:46.841Z,25.46
2022-08-14T13:32:14.943Z,26.65
2022-08-14T13:34:43.583Z,27.63
2022-08-14T13:37:14.374Z,28.27
2022-08-14T13:39:46.638Z,29.81
2022-08-14T13:42:23.412Z,29.85
2022-08-14T13:44:53.459Z,29.62
2022-08-14T13:47:21.307Z,30.15
2022-08-14T13:49:57.794Z,31.09
2022-08-14T13:52:51.622Z,31.70
2022-08-14T13:55:15.518Z,33.00
2022-08-14T13:57:49.212Z,33.79
2022-08-14T14:00:33.070Z,33.87
2022-08-14T14:03:06.844Z,34.12
2022-08-14T14:05:52.740Z,34.27
2022-08-14T14:08:46.002Z,35.04
2022-08-14T14:11:14.151Z,35.30
2022-08-14T14:13:45.272Z,33.99
2022-08-14T14:16:15.283Z,34.95
2022-08-14T14:18:52.499Z,35.02
2022-08-14T14:21:21.783Z,35.30
2022-08-14T14:23:48.876Z,35.84
2022-08-14T14:26:19.984Z,36.55
2022-08-14T14:28:51.980Z,37.06
2022-08-14T14:31:29.785Z,36.88
2022-08-14T14:34:00.542Z,37.78
2022-08-14T14:36:29.317Z,37.94
2022-08-14T14:39:01.577Z,38.22
2022-08-14T14:41:38.145Z,38.59
2022-08-14T14:44:15.885Z,39.17
2022-08-14T14:46:49.782Z,39.34
2022-08-14T14:49:21.665Z,39.30
2022-08-14T14:51:51.523Z,39.81
2022-08-14T14:54:31.520Z,39.35
2022-08-14T14:57:04.888Z,39.57
2022-08-14T14:59:38.056Z,39.27
2022-08-14T15:02:07.970Z,40.20
2022-08-14T15:04:37.868Z,39.72
2022-08-14T15:07:06.533Z,39.86
2022-08-14T15:09:36.180Z,40.89
2022-08-14T15:12:16.149Z,41.32
2022-08-14T15:14:54.975Z,40.78
2022-08-14T15:17:24.948Z,41.68
2022-08-14T15:19:56.833Z,41.81
2022-08-14T15:22:25.281Z,41.48
2022-08-14T15:24:52.161Z,41.49
2022-08-14T15:27:26.139Z,41.72
2022-08-14T15:29:53.501Z,42.25
2022-08-14T15:32:23.138Z,42.33
2022-08-14T15:34:51.889Z,42.88
2022-08-14T15:37:22.055Z,42.69
2022-08-14T15:39:50.342Z,42.57
2022-08-14T15:42:20.413Z,42.89
2022-08-14T15:44:58.234Z,42.90
2022-08-14T15:47:30.922Z,43.23
2022-08-14T15:50:03.615Z,42.69
2022-08-14T15:52:37.415Z,42.48
2022-08-14T15:55:07.698Z,42.70
2022-08-14T15:57:36.028Z,43.08
2022-08-14T16:00:44.453Z,43.19
2022-08-14T16:03:15.901Z,43.66
2022-08-14T16:05:45.833Z,43.52
2022-08-14T16:08:29.717Z,43.26
2022-08-14T16:11:03.174Z,43.45
2022-08-14T16:13:39.613Z,42.56
2022-08-14T16:16:47.355Z,43.42
2022-08-14T16:19:09.658Z,43.34
2022-08-14T16:21:40.542Z,44.27
2022-08-14T16:24:08.211Z,44.65
2022-08-14T16:26:54.884Z,43.75
2022-08-14T16:29:29.779Z,43.41
2022-08-14T16:31:58.707Z,43.38
2022-08-14T16:34:46.423Z,43.28
2022-08-14T16:37:13.072Z,42.87
2022-08-14T16:39:41.840Z,44.75
2022-08-14T16:42:38.155Z,44.59
2022-08-14T16:44:58.629Z,44.65
2022-08-14T16:47:26.043Z,43.94
2022-08-14T16:50:08.685Z,43.85
2022-08-14T16:52:44.172Z,43.54
2022-08-14T16:55:14.025Z,42.47
2022-08-14T16:57:50.166Z,43.92
2022-08-14T17:00:29.252Z,41.61
2022-08-14T17:03:11.753Z,41.54
2022-08-14T17:05:41.627Z,40.65
2022-08-14T17:08:41.555Z,40.89
2022-08-14T17:11:02.130Z,40.71
2022-08-14T17:13:59.550Z,40.18
2022-08-14T17:16:25.954Z,40.73
2022-08-14T17:19:01.032Z,41.07
2022-08-14T17:21:31.855Z,40.61
2022-08-14T17:24:55.850Z,40.80
2022-08-14T17:27:00.185Z,40.79
2022-08-14T17:29:44.551Z,41.44
2022-08-14T17:32:28.159Z,41.51
2022-08-14T17:35:10.263Z,41.55
2022-08-14T17:37:45.155Z,41.69
2022-08-14T17:40:17.565Z,41.53
2022-08-14T17:42:51.430Z,41.51
2022-08-14T17:45:42.726Z,41.26
2022-08-14T17:49:14.856Z,43.35
2022-08-14T17:51:23.742Z,42.76
2022-08-14T17:54:02.399Z,42.36
2022-08-14T17:56:33.732Z,44.21
2022-08-14T17:59:05.800Z,43.03
2022-08-14T18:01:38.868Z,43.08
2022-08-14T18:04:24.901Z,43.20
2022-08-14T18:06:58.727Z,42.99
2022-08-14T18:09:57.011Z,44.11
2022-08-14T18:12:37.084Z,43.87
2022-08-14T18:15:16.366Z,44.96
2022-08-14T18:17:52.986Z,45.75
2022-08-14T18:21:40.419Z,44.45
2022-08-14T18:23:13.532Z,44.39
2022-08-14T18:25:54.463Z,44.40
2022-08-14T18:28:51.096Z,44.60
2022-08-14T18:31:22.724Z,44.57
2022-08-14T18:34:12.204Z,44.76
2022-08-14T18:36:57.711Z,45.09
2022-08-14T18:40:01.901Z,45.24
2022-08-14T18:42:24.306Z,45.29
2022-08-14T18:45:15.541Z,45.25
2022-08-14T18:48:14.081Z,45.62
2022-08-14T18:50:54.667Z,45.62
2022-08-14T18:53:24.919Z,45.86
2022-08-14T18:56:09.287Z,45.94
2022-08-14T18:58:57.315Z,45.71
2022-08-14T19:01:29.977Z,46.13
2022-08-14T19:03:59.828Z,46.49
2022-08-14T19:06:40.031Z,46.13
2022-08-14T19:09:07.486Z,46.53
2022-08-14T19:11:37.438Z,46.64
2022-08-14T19:14:06.301Z,46.69
2022-08-14T19:16:35.011Z,47.03
2022-08-14T19:19:04.549Z,46.95
2022-08-14T19:21:32.536Z,47.37
2022-08-14T19:24:30.065Z,47.05
2022-08-14T19:27:12.344Z,47.40
2022-08-14T19:29:39.904Z,47.25
2022-08-14T19:32:32.235Z,47.26
2022-08-14T19:35:16.865Z,47.49
2022-08-14T19:37:47.936Z,47.39
2022-08-14T19:40:42.667Z,47.89
2022-08-14T19:43:10.311Z,47.64
2022-08-14T19:45:38.823Z,47.68
2022-08-14T19:48:14.061Z,47.53
2022-08-14T19:50:44.275Z,47.69
2022-08-14T19:53:17.792Z,47.21
2022-08-14T19:55:56.695Z,47.76
2022-08-14T19:58:30.242Z,47.75
2022-08-14T20:01:01.269Z,47.29
2022-08-14T20:04:00.450Z,47.47
2022-08-14T20:06:46.494Z,47.08
2022-08-14T20:11:07.095Z,47.51
2022-08-14T20:12:04.727Z,47.45
2022-08-14T20:14:36.016Z,47.55
2022-08-14T20:17:06.690Z,46.86
2022-08-14T20:19:37.436Z,47.66
2022-08-14T20:22:36.947Z,46.93
2022-08-14T20:24:54.308Z,46.33
2022-08-14T20:27:34.330Z,46.74
2022-08-14T20:30:29.520Z,46.40
2022-08-14T20:32:55.503Z,46.65
2022-08-14T20:35:35.871Z,46.41
2022-08-14T20:38:31.457Z,46.75
2022-08-14T20:40:59.386Z,46.28
2022-08-14T20:43:53.831Z,47.01
2022-08-14T20:46:29.477Z,46.91
2022-08-14T20:49:18.507Z,46.38
2022-08-14T20:51:58.470Z,46.47
2022-08-14T20:54:34.505Z,46.17
2022-08-14T20:57:14.677Z,46.38
2022-08-14T20:59:46.992Z,45.91
2022-08-14T21:02:29.713Z,46.05
2022-08-14T21:04:58.905Z,45.90
2022-08-14T21:07:36.656Z,45.47
2022-08-14T21:10:35.684Z,45.68
2022-08-14T21:14:09.204Z,45.34
2022-08-14T21:15:56.760Z,45.19
2022-08-14T21:18:32.454Z,44.86
2022-08-14T21:21:06.996Z,45.07
2022-08-14T21:23:37.257Z,45.31
2022-08-14T21:26:33.304Z,44.88
2022-08-14T21:29:15.161Z,45.13
2022-08-14T21:31:43.170Z,45.42
2022-08-14T21:34:27.432Z,45.18
2022-08-14T21:37:07.803Z,45.19
2022-08-14T21:39:36.227Z,44.84
2022-08-14T21:42:05.729Z,45.19
2022-08-14T21:44:42.734Z,45.45
2022-08-14T21:47:09.976Z,45.29
2022-08-14T21:49:38.849Z,45.05
2022-08-14T21:52:49.110Z,45.38
2022-08-14T21:55:08.610Z,45.58
2022-08-14T21:58:03.962Z,45.76
2022-08-14T22:00:36.321Z,45.72
2022-08-14T22:03:17.055Z,45.79
2022-08-14T22:05:45.835Z,45.50
2022-08-14T22:08:14.258Z,45.86
2022-08-14T22:10:46.719Z,45.82
2022-08-14T22:13:16.904Z,45.58
2022-08-14T22:15:50.230Z,45.82
2022-08-14T22:18:21.209Z,45.89
2022-08-14T22:20:53.537Z,46.20
2022-08-14T22:23:21.617Z,46.17
2022-08-14T22:25:51.124Z,46.65
2022-08-14T22:28:25.181Z,46.55
2022-08-14T22:30:55.214Z,46.50
2022-08-14T22:33:30.844Z,46.86
2022-08-14T22:35:58.957Z,46.43
2022-08-14T22:38:37.530Z,46.69
2022-08-14T22:41:25.167Z,46.53
2022-08-14T22:43:59.212Z,46.69
2022-08-14T22:46:26.130Z,47.37
2022-08-14T22:48:53.719Z,47.06
2022-08-14T22:51:22.411Z,47.12
2022-08-14T22:53:52.333Z,47.13
2022-08-14T22:56:22.253Z,47.68
2022-08-14T22:58:57.775Z,47.97
2022-08-14T23:01:57.250Z,47.99
2022-08-14T23:04:35.194Z,47.90
2022-08-14T23:07:21.788Z,48.12
2022-08-14T23:09:56.463Z,48.25
2022-08-14T23:12:28.266Z,47.98
2022-08-14T23:14:55.544Z,48.40
2022-08-14T23:17:22.561Z,48.39
2022-08-14T23:19:49.020Z,48.72
2022-08-14T23:22:24.285Z,48.64
2022-08-14T23:24:57.822Z,48.66
2022-08-14T23:27:32.036Z,48.69
2022-08-14T23:30:31.435Z,49.31
2022-08-14T23:33:02.598Z,48.99
2022-08-14T23:35:29.575Z,49.12
2022-08-14T23:38:05.425Z,49.54
2022-08-14T23:40:34.431Z,49.01
2022-08-14T23:43:08.029Z,49.62
2022-08-14T23:45:38.567Z,49.23
2022-08-14T23:48:09.908Z,49.75
2022-08-14T23:50:40.856Z,49.47
2022-08-14T23:53:28.442Z,49.93
2022-08-14T23:56:20.014Z,49.87
2022-08-14T23:58:59.355Z,50.13
